sensor_id;sensor_type;location;lat;lon;timestamp;temperature;humidity
32201;DHT22;18701;45.588;5.288;2023-02-23T00:01:35;11.10;99.90
32201;DHT22;18701;45.588;5.288;2023-02-23T00:04:01;11.20;99.90
32201;DHT22;18701;45.588;5.288;2023-02-23T00:06:28;11.20;99.90
32201;DHT22;18701;45.588;5.288;2023-02-23T00:08:54;11.10;99.90
32201;DHT22;18701;45.588;5.288;2023-02-23T00:11:20;11.20;99.90
32201;DHT22;18701;45.588;5.288;2023-02-23T00:13:48;11.20;99.90
32201;DHT22;18701;45.588;5.288;2023-02-23T00:16:20;11.20;99.90
32201;DHT22;18701;45.588;5.288;2023-02-23T00:18:51;11.20;99.90
32201;DHT22;18701;45.588;5.288;2023-02-23T00:21:20;11.20;99.90
32201;DHT22;18701;45.588;5.288;2023-02-23T00:26:13;11.20;99.90
32201;DHT22;18701;45.588;5.288;2023-02-23T00:28:41;11.20;99.90
32201;DHT22;18701;45.588;5.288;2023-02-23T00:31:09;11.20;99.90
32201;DHT22;18701;45.588;5.288;2023-02-23T00:33:35;11.20;99.90
32201;DHT22;18701;45.588;5.288;2023-02-23T00:36:09;11.10;99.90
32201;DHT22;18701;45.588;5.288;2023-02-23T00:38:35;11.10;99.90
32201;DHT22;18701;45.588;5.288;2023-02-23T00:41:09;11.20;99.90
32201;DHT22;18701;45.588;5.288;2023-02-23T00:43:39;11.20;99.90
32201;DHT22;18701;45.588;5.288;2023-02-23T00:46:18;11.20;99.90
32201;DHT22;18701;45.588;5.288;2023-02-23T00:48:46;11.20;99.90
32201;DHT22;18701;45.588;5.288;2023-02-23T00:51:14;11.20;99.90
32201;DHT22;18701;45.588;5.288;2023-02-23T00:53:41;11.10;99.90
32201;DHT22;18701;45.588;5.288;2023-02-23T00:56:09;11.10;99.90
32201;DHT22;18701;45.588;5.288;2023-02-23T00:58:35;11.10;99.90
32201;DHT22;18701;45.588;5.288;2023-02-23T01:01:01;11.00;99.90
32201;DHT22;18701;45.588;5.288;2023-02-23T01:03:29;11.00;99.90
32201;DHT22;18701;45.588;5.288;2023-02-23T01:06:04;11.10;99.90
32201;DHT22;18701;45.588;5.288;2023-02-23T01:08:34;11.10;99.90
32201;DHT22;18701;45.588;5.288;2023-02-23T01:11:09;11.10;99.90
32201;DHT22;18701;45.588;5.288;2023-02-23T01:13:36;11.10;99.90
32201;DHT22;18701;45.588;5.288;2023-02-23T01:16:07;11.10;99.90
32201;DHT22;18701;45.588;5.288;2023-02-23T01:18:33;11.10;99.90
32201;DHT22;18701;45.588;5.288;2023-02-23T01:21:00;11.10;99.90
32201;DHT22;18701;45.588;5.288;2023-02-23T01:23:26;11.10;99.90
32201;DHT22;18701;45.588;5.288;2023-02-23T01:25:51;11.00;99.90
32201;DHT22;18701;45.588;5.288;2023-02-23T01:28:17;11.00;99.90
32201;DHT22;18701;45.588;5.288;2023-02-23T01:30:42;11.10;99.90
32201;DHT22;18701;45.588;5.288;2023-02-23T01:33:09;11.00;99.90
32201;DHT22;18701;45.588;5.288;2023-02-23T01:35:36;11.00;99.90
32201;DHT22;18701;45.588;5.288;2023-02-23T01:38:02;10.90;99.90
32201;DHT22;18701;45.588;5.288;2023-02-23T01:40:28;11.00;99.90
32201;DHT22;18701;45.588;5.288;2023-02-23T01:43:05;11.00;99.90
32201;DHT22;18701;45.588;5.288;2023-02-23T01:45:36;10.90;99.90
32201;DHT22;18701;45.588;5.288;2023-02-23T01:48:06;10.90;99.90
32201;DHT22;18701;45.588;5.288;2023-02-23T01:50:58;10.90;99.90
32201;DHT22;18701;45.588;5.288;2023-02-23T01:53:32;10.90;99.90
32201;DHT22;18701;45.588;5.288;2023-02-23T01:56:06;10.90;99.90
32201;DHT22;18701;45.588;5.288;2023-02-23T01:58:40;10.90;99.90
32201;DHT22;18701;45.588;5.288;2023-02-23T02:01:10;11.00;99.90
32201;DHT22;18701;45.588;5.288;2023-02-23T02:03:57;11.00;99.90
32201;DHT22;18701;45.588;5.288;2023-02-23T02:06:26;11.00;99.90
32201;DHT22;18701;45.588;5.288;2023-02-23T02:08:56;10.90;99.90
32201;DHT22;18701;45.588;5.288;2023-02-23T02:11:23;10.90;99.90
32201;DHT22;18701;45.588;5.288;2023-02-23T02:17:18;10.80;99.90
32201;DHT22;18701;45.588;5.288;2023-02-23T02:38:44;10.60;99.90
32201;DHT22;18701;45.588;5.288;2023-02-23T02:46:58;10.50;99.90
32201;DHT22;18701;45.588;5.288;2023-02-23T02:49:31;10.50;99.90
32201;DHT22;18701;45.588;5.288;2023-02-23T02:52:15;10.50;99.90
32201;DHT22;18701;45.588;5.288;2023-02-23T02:54:49;10.50;99.90
32201;DHT22;18701;45.588;5.288;2023-02-23T02:57:19;10.50;99.90
32201;DHT22;18701;45.588;5.288;2023-02-23T02:59:47;10.50;99.90
32201;DHT22;18701;45.588;5.288;2023-02-23T03:02:34;10.40;99.90
32201;DHT22;18701;45.588;5.288;2023-02-23T03:05:22;10.40;99.90
32201;DHT22;18701;45.588;5.288;2023-02-23T03:08:26;10.30;99.90
32201;DHT22;18701;45.588;5.288;2023-02-23T03:11:13;10.30;99.90
32201;DHT22;18701;45.588;5.288;2023-02-23T03:20:39;10.20;99.90
32201;DHT22;18701;45.588;5.288;2023-02-23T03:26:46;10.10;99.90
32201;DHT22;18701;45.588;5.288;2023-02-23T03:33:00;10.10;99.90
32201;DHT22;18701;45.588;5.288;2023-02-23T03:36:09;10.00;99.90
32201;DHT22;18701;45.588;5.288;2023-02-23T03:42:04;9.70;99.90
32201;DHT22;18701;45.588;5.288;2023-02-23T03:44:51;9.70;99.90
32201;DHT22;18701;45.588;5.288;2023-02-23T03:47:40;9.70;99.90
32201;DHT22;18701;45.588;5.288;2023-02-23T03:50:29;9.70;99.90
32201;DHT22;18701;45.588;5.288;2023-02-23T03:53:18;9.70;99.90
32201;DHT22;18701;45.588;5.288;2023-02-23T03:56:07;9.60;99.90
32201;DHT22;18701;45.588;5.288;2023-02-23T03:58:56;9.60;99.90
32201;DHT22;18701;45.588;5.288;2023-02-23T04:01:41;9.60;99.90
32201;DHT22;18701;45.588;5.288;2023-02-23T04:04:26;9.60;99.90
32201;DHT22;18701;45.588;5.288;2023-02-23T04:07:14;9.60;99.90
32201;DHT22;18701;45.588;5.288;2023-02-23T04:09:59;9.70;99.90
32201;DHT22;18701;45.588;5.288;2023-02-23T04:13:10;9.70;99.90
32201;DHT22;18701;45.588;5.288;2023-02-23T04:15:49;9.60;99.90
32201;DHT22;18701;45.588;5.288;2023-02-23T04:18:22;9.60;99.90
32201;DHT22;18701;45.588;5.288;2023-02-23T04:20:49;9.50;99.90
32201;DHT22;18701;45.588;5.288;2023-02-23T04:23:14;9.50;99.90
32201;DHT22;18701;45.588;5.288;2023-02-23T04:25:40;9.40;99.90
32201;DHT22;18701;45.588;5.288;2023-02-23T04:28:06;9.60;99.90
32201;DHT22;18701;45.588;5.288;2023-02-23T04:30:31;9.60;99.90
32201;DHT22;18701;45.588;5.288;2023-02-23T04:32:57;9.50;99.90
32201;DHT22;18701;45.588;5.288;2023-02-23T04:35:24;9.40;99.90
32201;DHT22;18701;45.588;5.288;2023-02-23T04:37:52;9.40;99.90
32201;DHT22;18701;45.588;5.288;2023-02-23T04:40:17;9.50;99.90
32201;DHT22;18701;45.588;5.288;2023-02-23T04:42:43;9.50;99.90
32201;DHT22;18701;45.588;5.288;2023-02-23T04:45:09;9.50;99.90
32201;DHT22;18701;45.588;5.288;2023-02-23T04:47:35;9.50;99.90
32201;DHT22;18701;45.588;5.288;2023-02-23T04:50:01;9.50;99.90
32201;DHT22;18701;45.588;5.288;2023-02-23T04:52:26;9.50;99.90
32201;DHT22;18701;45.588;5.288;2023-02-23T04:54:52;9.50;99.90
32201;DHT22;18701;45.588;5.288;2023-02-23T04:57:17;9.50;99.90
32201;DHT22;18701;45.588;5.288;2023-02-23T04:59:43;9.40;99.90
32201;DHT22;18701;45.588;5.288;2023-02-23T05:02:09;9.30;99.90
32201;DHT22;18701;45.588;5.288;2023-02-23T05:04:34;9.40;99.90
32201;DHT22;18701;45.588;5.288;2023-02-23T05:07:00;9.40;99.90
32201;DHT22;18701;45.588;5.288;2023-02-23T05:09:28;9.40;99.90
32201;DHT22;18701;45.588;5.288;2023-02-23T05:11:53;9.30;99.90
32201;DHT22;18701;45.588;5.288;2023-02-23T05:14:19;9.30;99.90
32201;DHT22;18701;45.588;5.288;2023-02-23T05:16:45;9.30;99.90
32201;DHT22;18701;45.588;5.288;2023-02-23T05:19:11;9.30;99.90
32201;DHT22;18701;45.588;5.288;2023-02-23T05:21:36;9.20;99.90
32201;DHT22;18701;45.588;5.288;2023-02-23T05:24:04;9.20;99.90
32201;DHT22;18701;45.588;5.288;2023-02-23T05:26:29;9.20;99.90
32201;DHT22;18701;45.588;5.288;2023-02-23T05:28:55;9.20;99.90
32201;DHT22;18701;45.588;5.288;2023-02-23T05:31:22;9.00;99.90
32201;DHT22;18701;45.588;5.288;2023-02-23T05:33:47;9.00;99.90
32201;DHT22;18701;45.588;5.288;2023-02-23T05:36:16;9.10;99.90
32201;DHT22;18701;45.588;5.288;2023-02-23T05:38:42;9.00;99.90
32201;DHT22;18701;45.588;5.288;2023-02-23T05:41:11;8.90;99.90
32201;DHT22;18701;45.588;5.288;2023-02-23T05:43:38;8.80;99.90
32201;DHT22;18701;45.588;5.288;2023-02-23T05:46:14;8.80;99.90
32201;DHT22;18701;45.588;5.288;2023-02-23T05:48:40;8.80;99.90
32201;DHT22;18701;45.588;5.288;2023-02-23T05:51:08;8.80;99.90
32201;DHT22;18701;45.588;5.288;2023-02-23T05:53:35;8.80;99.90
32201;DHT22;18701;45.588;5.288;2023-02-23T05:56:02;8.70;99.90
32201;DHT22;18701;45.588;5.288;2023-02-23T05:58:28;8.70;99.90
32201;DHT22;18701;45.588;5.288;2023-02-23T06:00:53;8.60;99.90
32201;DHT22;18701;45.588;5.288;2023-02-23T06:03:19;8.60;99.90
32201;DHT22;18701;45.588;5.288;2023-02-23T06:05:50;8.60;99.90
32201;DHT22;18701;45.588;5.288;2023-02-23T06:08:16;8.60;99.90
32201;DHT22;18701;45.588;5.288;2023-02-23T06:10:42;8.50;99.90
32201;DHT22;18701;45.588;5.288;2023-02-23T06:13:07;8.50;99.90
32201;DHT22;18701;45.588;5.288;2023-02-23T06:15:33;8.50;99.90
32201;DHT22;18701;45.588;5.288;2023-02-23T06:17:58;8.60;99.90
32201;DHT22;18701;45.588;5.288;2023-02-23T06:20:24;8.50;99.90
32201;DHT22;18701;45.588;5.288;2023-02-23T06:22:50;8.50;99.90
32201;DHT22;18701;45.588;5.288;2023-02-23T06:25:15;8.30;99.90
32201;DHT22;18701;45.588;5.288;2023-02-23T06:27:41;8.40;99.90
32201;DHT22;18701;45.588;5.288;2023-02-23T06:30:10;8.50;99.90
32201;DHT22;18701;45.588;5.288;2023-02-23T06:32:36;8.40;99.90
32201;DHT22;18701;45.588;5.288;2023-02-23T06:35:03;8.50;99.90
32201;DHT22;18701;45.588;5.288;2023-02-23T06:37:30;8.40;99.90
32201;DHT22;18701;45.588;5.288;2023-02-23T06:39:56;8.40;99.90
32201;DHT22;18701;45.588;5.288;2023-02-23T06:42:22;8.30;99.90
32201;DHT22;18701;45.588;5.288;2023-02-23T06:44:47;8.40;99.90
32201;DHT22;18701;45.588;5.288;2023-02-23T06:47:13;8.30;99.90
32201;DHT22;18701;45.588;5.288;2023-02-23T06:49:38;8.30;99.90
32201;DHT22;18701;45.588;5.288;2023-02-23T06:52:06;8.40;99.90
32201;DHT22;18701;45.588;5.288;2023-02-23T06:54:31;8.40;99.90
32201;DHT22;18701;45.588;5.288;2023-02-23T06:56:58;8.40;99.90
32201;DHT22;18701;45.588;5.288;2023-02-23T06:59:24;8.40;99.90
32201;DHT22;18701;45.588;5.288;2023-02-23T07:01:50;8.40;99.90
32201;DHT22;18701;45.588;5.288;2023-02-23T07:04:16;8.40;99.90
32201;DHT22;18701;45.588;5.288;2023-02-23T07:06:42;8.40;99.90
32201;DHT22;18701;45.588;5.288;2023-02-23T07:09:08;8.40;99.90
32201;DHT22;18701;45.588;5.288;2023-02-23T07:11:34;8.40;99.90
32201;DHT22;18701;45.588;5.288;2023-02-23T07:14:00;8.30;99.90
32201;DHT22;18701;45.588;5.288;2023-02-23T07:16:27;8.40;99.90
32201;DHT22;18701;45.588;5.288;2023-02-23T07:18:55;8.40;99.90
32201;DHT22;18701;45.588;5.288;2023-02-23T07:21:21;8.40;99.90
32201;DHT22;18701;45.588;5.288;2023-02-23T07:23:47;8.50;99.90
32201;DHT22;18701;45.588;5.288;2023-02-23T07:26:15;8.60;99.90
32201;DHT22;18701;45.588;5.288;2023-02-23T07:28:42;8.60;99.90
32201;DHT22;18701;45.588;5.288;2023-02-23T07:31:07;8.70;99.90
32201;DHT22;18701;45.588;5.288;2023-02-23T07:33:33;8.70;99.90
32201;DHT22;18701;45.588;5.288;2023-02-23T07:35:59;8.80;99.90
32201;DHT22;18701;45.588;5.288;2023-02-23T07:38:25;8.90;99.90
32201;DHT22;18701;45.588;5.288;2023-02-23T07:40:51;9.10;99.90
32201;DHT22;18701;45.588;5.288;2023-02-23T07:43:17;9.00;99.90
32201;DHT22;18701;45.588;5.288;2023-02-23T07:45:45;9.10;99.90
32201;DHT22;18701;45.588;5.288;2023-02-23T07:48:11;9.10;99.90
32201;DHT22;18701;45.588;5.288;2023-02-23T07:50:38;9.10;99.90
32201;DHT22;18701;45.588;5.288;2023-02-23T07:53:04;9.40;99.90
32201;DHT22;18701;45.588;5.288;2023-02-23T07:55:30;9.40;99.90
32201;DHT22;18701;45.588;5.288;2023-02-23T07:57:56;9.40;99.90
32201;DHT22;18701;45.588;5.288;2023-02-23T08:00:22;9.50;99.90
32201;DHT22;18701;45.588;5.288;2023-02-23T08:02:50;9.50;99.90
32201;DHT22;18701;45.588;5.288;2023-02-23T08:05:17;9.40;99.90
32201;DHT22;18701;45.588;5.288;2023-02-23T08:07:43;9.60;99.90
32201;DHT22;18701;45.588;5.288;2023-02-23T08:10:10;9.60;99.90
32201;DHT22;18701;45.588;5.288;2023-02-23T08:12:36;9.70;99.90
32201;DHT22;18701;45.588;5.288;2023-02-23T08:15:02;9.80;99.90
32201;DHT22;18701;45.588;5.288;2023-02-23T08:17:30;9.80;99.90
32201;DHT22;18701;45.588;5.288;2023-02-23T08:19:55;9.90;99.90
32201;DHT22;18701;45.588;5.288;2023-02-23T08:22:21;9.90;99.90
32201;DHT22;18701;45.588;5.288;2023-02-23T08:24:47;10.00;99.90
32201;DHT22;18701;45.588;5.288;2023-02-23T08:27:12;10.20;99.90
32201;DHT22;18701;45.588;5.288;2023-02-23T08:29:38;10.30;99.90
32201;DHT22;18701;45.588;5.288;2023-02-23T08:32:04;10.50;99.90
32201;DHT22;18701;45.588;5.288;2023-02-23T08:34:30;10.60;99.90
32201;DHT22;18701;45.588;5.288;2023-02-23T08:36:56;10.70;99.90
32201;DHT22;18701;45.588;5.288;2023-02-23T08:39:21;10.90;99.90
32201;DHT22;18701;45.588;5.288;2023-02-23T08:41:47;11.00;99.90
32201;DHT22;18701;45.588;5.288;2023-02-23T08:44:13;11.10;99.90
32201;DHT22;18701;45.588;5.288;2023-02-23T08:46:38;11.20;99.90
32201;DHT22;18701;45.588;5.288;2023-02-23T08:49:04;11.40;99.90
32201;DHT22;18701;45.588;5.288;2023-02-23T08:51:31;11.40;99.90
32201;DHT22;18701;45.588;5.288;2023-02-23T08:54:00;11.60;99.90
32201;DHT22;18701;45.588;5.288;2023-02-23T08:56:25;11.70;99.90
32201;DHT22;18701;45.588;5.288;2023-02-23T08:58:51;11.80;99.90
32201;DHT22;18701;45.588;5.288;2023-02-23T09:01:19;11.90;99.90
32201;DHT22;18701;45.588;5.288;2023-02-23T09:03:46;12.00;99.90
32201;DHT22;18701;45.588;5.288;2023-02-23T09:06:16;12.00;99.90
32201;DHT22;18701;45.588;5.288;2023-02-23T09:08:41;12.00;99.90
32201;DHT22;18701;45.588;5.288;2023-02-23T09:11:07;12.00;99.90
32201;DHT22;18701;45.588;5.288;2023-02-23T09:13:33;12.10;99.90
32201;DHT22;18701;45.588;5.288;2023-02-23T09:15:59;12.20;99.90
32201;DHT22;18701;45.588;5.288;2023-02-23T09:18:25;12.20;99.90
32201;DHT22;18701;45.588;5.288;2023-02-23T09:20:54;12.20;99.90
32201;DHT22;18701;45.588;5.288;2023-02-23T09:23:19;12.00;99.90
32201;DHT22;18701;45.588;5.288;2023-02-23T09:25:45;12.10;99.90
32201;DHT22;18701;45.588;5.288;2023-02-23T09:28:16;12.10;99.90
32201;DHT22;18701;45.588;5.288;2023-02-23T09:30:43;12.20;99.90
32201;DHT22;18701;45.588;5.288;2023-02-23T09:33:10;12.30;99.90
32201;DHT22;18701;45.588;5.288;2023-02-23T09:35:36;12.30;99.90
32201;DHT22;18701;45.588;5.288;2023-02-23T09:38:03;12.30;99.90
32201;DHT22;18701;45.588;5.288;2023-02-23T09:40:49;12.60;99.90
32201;DHT22;18701;45.588;5.288;2023-02-23T09:46:28;13.10;99.90
32201;DHT22;18701;45.588;5.288;2023-02-23T09:49:00;13.20;99.90
32201;DHT22;18701;45.588;5.288;2023-02-23T09:51:27;13.40;99.90
32201;DHT22;18701;45.588;5.288;2023-02-23T09:53:56;13.60;99.90
32201;DHT22;18701;45.588;5.288;2023-02-23T09:56:37;14.00;99.90
32201;DHT22;18701;45.588;5.288;2023-02-23T09:59:05;14.30;99.90
32201;DHT22;18701;45.588;5.288;2023-02-23T10:02:04;14.40;99.90
32201;DHT22;18701;45.588;5.288;2023-02-23T10:04:44;14.60;99.90
32201;DHT22;18701;45.588;5.288;2023-02-23T10:07:16;14.90;99.90
32201;DHT22;18701;45.588;5.288;2023-02-23T10:10:16;15.00;99.90
32201;DHT22;18701;45.588;5.288;2023-02-23T10:18:52;14.60;99.90
32201;DHT22;18701;45.588;5.288;2023-02-23T10:21:37;14.60;99.90
32201;DHT22;18701;45.588;5.288;2023-02-23T10:24:12;14.60;99.90
32201;DHT22;18701;45.588;5.288;2023-02-23T10:26:45;14.40;99.90
32201;DHT22;18701;45.588;5.288;2023-02-23T10:29:30;14.20;99.90
32201;DHT22;18701;45.588;5.288;2023-02-23T10:32:01;14.00;99.90
32201;DHT22;18701;45.588;5.288;2023-02-23T10:34:30;13.90;99.90
32201;DHT22;18701;45.588;5.288;2023-02-23T10:37:01;13.70;99.90
32201;DHT22;18701;45.588;5.288;2023-02-23T10:39:30;13.60;99.90
32201;DHT22;18701;45.588;5.288;2023-02-23T10:42:03;13.50;99.90
32201;DHT22;18701;45.588;5.288;2023-02-23T10:44:30;13.50;99.90
32201;DHT22;18701;45.588;5.288;2023-02-23T10:47:08;13.50;99.90
32201;DHT22;18701;45.588;5.288;2023-02-23T10:49:53;13.60;99.90
32201;DHT22;18701;45.588;5.288;2023-02-23T10:52:32;13.70;99.90
32201;DHT22;18701;45.588;5.288;2023-02-23T10:54:59;13.80;99.90
32201;DHT22;18701;45.588;5.288;2023-02-23T10:57:32;14.00;99.90
32201;DHT22;18701;45.588;5.288;2023-02-23T11:00:04;14.20;99.90
32201;DHT22;18701;45.588;5.288;2023-02-23T11:02:30;14.30;99.90
32201;DHT22;18701;45.588;5.288;2023-02-23T11:04:58;14.80;99.90
32201;DHT22;18701;45.588;5.288;2023-02-23T11:07:29;14.80;99.90
32201;DHT22;18701;45.588;5.288;2023-02-23T11:10:25;15.20;99.90
32201;DHT22;18701;45.588;5.288;2023-02-23T11:12:51;15.00;99.90
32201;DHT22;18701;45.588;5.288;2023-02-23T11:15:33;15.10;99.90
32201;DHT22;18701;45.588;5.288;2023-02-23T11:18:03;15.20;99.90
32201;DHT22;18701;45.588;5.288;2023-02-23T11:20:35;15.70;99.90
32201;DHT22;18701;45.588;5.288;2023-02-23T11:23:20;16.10;99.90
32201;DHT22;18701;45.588;5.288;2023-02-23T11:25:47;16.20;99.90
32201;DHT22;18701;45.588;5.288;2023-02-23T11:28:29;16.30;99.90
32201;DHT22;18701;45.588;5.288;2023-02-23T11:31:20;16.40;99.90
32201;DHT22;18701;45.588;5.288;2023-02-23T11:33:53;18.50;99.90
32201;DHT22;18701;45.588;5.288;2023-02-23T11:36:28;21.80;99.90
32201;DHT22;18701;45.588;5.288;2023-02-23T11:39:27;23.40;99.90
32201;DHT22;18701;45.588;5.288;2023-02-23T11:42:16;24.00;99.70
32201;DHT22;18701;45.588;5.288;2023-02-23T11:44:59;21.20;99.90
32201;DHT22;18701;45.588;5.288;2023-02-23T11:47:27;22.20;99.90
32201;DHT22;18701;45.588;5.288;2023-02-23T11:49:53;24.80;98.20
32201;DHT22;18701;45.588;5.288;2023-02-23T11:52:22;22.30;98.70
32201;DHT22;18701;45.588;5.288;2023-02-23T11:54:59;19.70;99.90
32201;DHT22;18701;45.588;5.288;2023-02-23T11:57:33;18.80;99.90
32201;DHT22;18701;45.588;5.288;2023-02-23T12:00:19;17.70;99.90
32201;DHT22;18701;45.588;5.288;2023-02-23T12:02:55;16.90;99.90
32201;DHT22;18701;45.588;5.288;2023-02-23T12:05:28;16.70;99.90
32201;DHT22;18701;45.588;5.288;2023-02-23T12:08:18;16.90;99.90
32201;DHT22;18701;45.588;5.288;2023-02-23T12:10:53;16.70;99.90
32201;DHT22;18701;45.588;5.288;2023-02-23T12:13:54;16.40;99.90
32201;DHT22;18701;45.588;5.288;2023-02-23T12:16:38;16.30;99.90
32201;DHT22;18701;45.588;5.288;2023-02-23T12:19:10;15.90;99.90
32201;DHT22;18701;45.588;5.288;2023-02-23T12:22:09;15.70;99.90
32201;DHT22;18701;45.588;5.288;2023-02-23T12:27:14;15.20;99.90
32201;DHT22;18701;45.588;5.288;2023-02-23T12:32:25;14.90;99.90
32201;DHT22;18701;45.588;5.288;2023-02-23T12:34:59;14.80;99.90
32201;DHT22;18701;45.588;5.288;2023-02-23T12:37:37;14.60;99.90
32201;DHT22;18701;45.588;5.288;2023-02-23T12:46:25;18.90;99.90
32201;DHT22;18701;45.588;5.288;2023-02-23T12:51:26;24.00;99.10
32201;DHT22;18701;45.588;5.288;2023-02-23T12:53:54;24.40;97.00
32201;DHT22;18701;45.588;5.288;2023-02-23T13:01:58;22.70;96.90
32201;DHT22;18701;45.588;5.288;2023-02-23T13:07:07;22.90;96.40
32201;DHT22;18701;45.588;5.288;2023-02-23T13:10:25;21.10;97.70
32201;DHT22;18701;45.588;5.288;2023-02-23T13:18:21;23.20;97.10
32201;DHT22;18701;45.588;5.288;2023-02-23T13:21:01;21.90;96.80
32201;DHT22;18701;45.588;5.288;2023-02-23T13:24:13;20.00;98.50
32201;DHT22;18701;45.588;5.288;2023-02-23T13:29:25;19.00;99.90
32201;DHT22;18701;45.588;5.288;2023-02-23T13:31:56;18.60;99.90
32201;DHT22;18701;45.588;5.288;2023-02-23T13:34:26;18.40;99.90
32201;DHT22;18701;45.588;5.288;2023-02-23T13:36:53;18.00;99.90
32201;DHT22;18701;45.588;5.288;2023-02-23T13:39:32;18.00;99.90
32201;DHT22;18701;45.588;5.288;2023-02-23T13:49:40;17.80;99.90
32201;DHT22;18701;45.588;5.288;2023-02-23T13:52:20;17.10;99.90
32201;DHT22;18701;45.588;5.288;2023-02-23T13:54:55;16.40;99.90
32201;DHT22;18701;45.588;5.288;2023-02-23T13:57:28;16.20;99.90
32201;DHT22;18701;45.588;5.288;2023-02-23T13:59:54;16.20;99.90
32201;DHT22;18701;45.588;5.288;2023-02-23T14:02:36;16.00;99.90
32201;DHT22;18701;45.588;5.288;2023-02-23T14:07:32;15.60;99.90
32201;DHT22;18701;45.588;5.288;2023-02-23T14:10:13;15.50;99.90
32201;DHT22;18701;45.588;5.288;2023-02-23T14:13:02;15.40;99.90
32201;DHT22;18701;45.588;5.288;2023-02-23T14:15:43;15.30;99.90
32201;DHT22;18701;45.588;5.288;2023-02-23T14:23:49;15.10;99.90
32201;DHT22;18701;45.588;5.288;2023-02-23T14:32:02;15.20;99.90
32201;DHT22;18701;45.588;5.288;2023-02-23T14:34:56;15.20;99.90
32201;DHT22;18701;45.588;5.288;2023-02-23T14:37:33;15.20;99.90
32201;DHT22;18701;45.588;5.288;2023-02-23T14:40:20;15.30;99.90
32201;DHT22;18701;45.588;5.288;2023-02-23T14:42:51;15.30;99.90
32201;DHT22;18701;45.588;5.288;2023-02-23T14:47:46;15.40;99.90
32201;DHT22;18701;45.588;5.288;2023-02-23T14:50:25;15.40;99.90
32201;DHT22;18701;45.588;5.288;2023-02-23T14:52:54;15.30;99.90
32201;DHT22;18701;45.588;5.288;2023-02-23T14:55:26;15.30;99.90
32201;DHT22;18701;45.588;5.288;2023-02-23T14:57:52;15.10;99.90
32201;DHT22;18701;45.588;5.288;2023-02-23T15:00:29;15.10;99.90
32201;DHT22;18701;45.588;5.288;2023-02-23T15:02:59;15.10;99.90
32201;DHT22;18701;45.588;5.288;2023-02-23T15:05:31;15.00;99.90
32201;DHT22;18701;45.588;5.288;2023-02-23T15:07:59;14.90;99.90
32201;DHT22;18701;45.588;5.288;2023-02-23T15:10:30;15.00;99.90
32201;DHT22;18701;45.588;5.288;2023-02-23T15:12:58;14.90;99.90
32201;DHT22;18701;45.588;5.288;2023-02-23T15:15:25;14.80;99.90
32201;DHT22;18701;45.588;5.288;2023-02-23T15:17:54;14.90;99.90
32201;DHT22;18701;45.588;5.288;2023-02-23T15:20:25;14.90;99.90
32201;DHT22;18701;45.588;5.288;2023-02-23T15:22:54;14.90;99.90
32201;DHT22;18701;45.588;5.288;2023-02-23T15:25:24;14.80;99.90
32201;DHT22;18701;45.588;5.288;2023-02-23T15:27:51;14.90;99.90
32201;DHT22;18701;45.588;5.288;2023-02-23T15:30:28;14.90;99.90
32201;DHT22;18701;45.588;5.288;2023-02-23T15:33:11;14.90;99.90
32201;DHT22;18701;45.588;5.288;2023-02-23T15:36:28;14.90;99.90
32201;DHT22;18701;45.588;5.288;2023-02-23T15:38:29;15.00;99.90
32201;DHT22;18701;45.588;5.288;2023-02-23T15:41:01;14.90;99.90
32201;DHT22;18701;45.588;5.288;2023-02-23T15:43:27;15.00;99.90
32201;DHT22;18701;45.588;5.288;2023-02-23T15:45:55;14.90;99.90
32201;DHT22;18701;45.588;5.288;2023-02-23T15:48:25;14.90;99.90
32201;DHT22;18701;45.588;5.288;2023-02-23T15:50:54;14.80;99.90
32201;DHT22;18701;45.588;5.288;2023-02-23T15:55:56;14.60;99.90
32201;DHT22;18701;45.588;5.288;2023-02-23T15:58:27;14.60;99.90
32201;DHT22;18701;45.588;5.288;2023-02-23T16:01:00;14.70;99.90
32201;DHT22;18701;45.588;5.288;2023-02-23T16:03:43;14.70;99.90
32201;DHT22;18701;45.588;5.288;2023-02-23T16:06:24;14.60;99.90
32201;DHT22;18701;45.588;5.288;2023-02-23T16:12:12;14.70;99.90
32201;DHT22;18701;45.588;5.288;2023-02-23T16:19:46;14.60;99.90
32201;DHT22;18701;45.588;5.288;2023-02-23T16:22:23;14.60;99.90
32201;DHT22;18701;45.588;5.288;2023-02-23T16:24:58;14.40;99.90
32201;DHT22;18701;45.588;5.288;2023-02-23T16:27:25;14.40;99.90
32201;DHT22;18701;45.588;5.288;2023-02-23T16:29:57;14.40;99.90
32201;DHT22;18701;45.588;5.288;2023-02-23T16:32:32;14.40;99.90
32201;DHT22;18701;45.588;5.288;2023-02-23T16:35:13;14.30;99.90
32201;DHT22;18701;45.588;5.288;2023-02-23T16:40:19;14.40;99.90
32201;DHT22;18701;45.588;5.288;2023-02-23T16:42:44;14.30;99.90
32201;DHT22;18701;45.588;5.288;2023-02-23T16:45:14;14.10;99.90
32201;DHT22;18701;45.588;5.288;2023-02-23T16:47:45;14.10;99.90
32201;DHT22;18701;45.588;5.288;2023-02-23T16:50:17;14.10;99.90
32201;DHT22;18701;45.588;5.288;2023-02-23T16:52:45;14.10;99.90
32201;DHT22;18701;45.588;5.288;2023-02-23T16:55:14;14.00;99.90
32201;DHT22;18701;45.588;5.288;2023-02-23T16:57:41;14.00;99.90
32201;DHT22;18701;45.588;5.288;2023-02-23T17:00:09;13.90;99.90
32201;DHT22;18701;45.588;5.288;2023-02-23T17:02:39;13.80;99.90
32201;DHT22;18701;45.588;5.288;2023-02-23T17:05:10;13.70;99.90
32201;DHT22;18701;45.588;5.288;2023-02-23T17:07:38;13.70;99.90
32201;DHT22;18701;45.588;5.288;2023-02-23T17:10:05;13.70;99.90
32201;DHT22;18701;45.588;5.288;2023-02-23T17:12:31;13.70;99.90
32201;DHT22;18701;45.588;5.288;2023-02-23T17:14:57;13.50;99.90
32201;DHT22;18701;45.588;5.288;2023-02-23T17:17:22;13.50;99.90
32201;DHT22;18701;45.588;5.288;2023-02-23T17:19:48;13.50;99.90
32201;DHT22;18701;45.588;5.288;2023-02-23T17:22:14;13.50;99.90
32201;DHT22;18701;45.588;5.288;2023-02-23T17:24:40;13.40;99.90
32201;DHT22;18701;45.588;5.288;2023-02-23T17:27:06;13.40;99.90
32201;DHT22;18701;45.588;5.288;2023-02-23T17:29:32;13.30;99.90
32201;DHT22;18701;45.588;5.288;2023-02-23T17:31:58;13.40;99.90
32201;DHT22;18701;45.588;5.288;2023-02-23T17:34:27;13.30;99.90
32201;DHT22;18701;45.588;5.288;2023-02-23T17:36:53;13.30;99.90
32201;DHT22;18701;45.588;5.288;2023-02-23T17:39:19;13.20;99.90
32201;DHT22;18701;45.588;5.288;2023-02-23T17:41:44;13.10;99.90
32201;DHT22;18701;45.588;5.288;2023-02-23T17:44:10;13.10;99.90
32201;DHT22;18701;45.588;5.288;2023-02-23T17:46:36;13.10;99.90
32201;DHT22;18701;45.588;5.288;2023-02-23T17:49:02;13.10;99.90
32201;DHT22;18701;45.588;5.288;2023-02-23T17:51:28;13.20;99.90
32201;DHT22;18701;45.588;5.288;2023-02-23T17:53:54;13.10;99.90
32201;DHT22;18701;45.588;5.288;2023-02-23T17:56:20;13.10;99.90
32201;DHT22;18701;45.588;5.288;2023-02-23T17:58:47;13.20;99.90
32201;DHT22;18701;45.588;5.288;2023-02-23T18:01:12;13.20;99.90
32201;DHT22;18701;45.588;5.288;2023-02-23T18:03:38;13.10;99.90
32201;DHT22;18701;45.588;5.288;2023-02-23T18:06:06;13.10;99.90